Time;durP1;ratioP1;P1;durP2;ratioP2;P2;SDS_P1;SDS_P2;PMS_P1;PMS_P2;Temp;Humidity;BMP_temperature;BMP_pressure;BME280_temperature;BME280_humidity;BME280_pressure;Samples;Min_cycle;Max_cycle;Signal;HPM_P1;HPM_P2
2022/01/23 00:01:46;;;;;;;2.63;0.90;;;6.80;99.90;;;;;;5011254;28;20065;-85
2022/01/23 00:04:12;;;;;;;2.40;1.10;;;6.00;99.90;;;;;;5012144;28;20054;-85
2022/01/23 00:06:37;;;;;;;1.73;0.90;;;5.60;99.90;;;;;;5012053;28;20050;-85
2022/01/23 00:09:03;;;;;;;2.15;0.90;;;5.60;99.90;;;;;;5011972;28;20152;-84
2022/01/23 00:11:31;;;;;;;3.05;0.73;;;5.90;99.90;;;;;;5011836;28;20136;-84
2022/01/23 00:19:09;;;;;;;1.42;0.50;;;5.60;99.90;;;;;;5033247;28;20055;-84
2022/01/23 00:21:37;;;;;;;1.88;0.60;;;6.30;99.90;;;;;;5064056;28;20055;-85
2022/01/23 00:31:57;;;;;;;1.40;0.47;;;5.10;99.90;;;;;;5065732;28;20040;-85
2022/01/23 00:34:23;;;;;;;1.35;0.40;;;5.10;99.90;;;;;;5070423;28;20103;-84
2022/01/23 00:36:48;;;;;;;1.95;0.50;;;5.90;99.90;;;;;;5071818;28;20048;-84
2022/01/23 00:39:14;;;;;;;2.38;0.50;;;6.40;99.90;;;;;;5072109;28;20076;-84
2022/01/23 00:41:40;;;;;;;1.65;0.35;;;5.40;99.90;;;;;;5071168;28;20045;-85
2022/01/23 00:44:06;;;;;;;0.50;0.20;;;5.80;99.90;;;;;;5070575;28;20467;-85
2022/01/23 00:46:37;;;;;;;1.40;0.40;;;5.50;99.90;;;;;;5051052;28;20040;-85
2022/01/23 00:51:35;;;;;;;2.08;1.17;;;5.70;99.90;;;;;;5053943;28;20393;-85
2022/01/23 00:54:04;;;;;;;1.13;0.38;;;4.80;99.90;;;;;;5052526;28;20276;-85
2022/01/23 00:56:30;;;;;;;0.40;0.30;;;5.50;99.90;;;;;;5071473;28;20036;-85
2022/01/23 00:58:56;;;;;;;0.40;0.30;;;5.60;99.90;;;;;;5070847;28;20082;-85
2022/01/23 01:01:21;;;;;;;0.35;0.30;;;6.00;99.90;;;;;;5053758;28;20040;-85
2022/01/23 01:03:48;;;;;;;0.65;0.30;;;6.10;99.90;;;;;;5071463;28;20543;-84
2022/01/23 01:06:15;;;;;;;0.60;0.30;;;6.10;99.90;;;;;;5069754;28;20052;-85
2022/01/23 01:08:42;;;;;;;0.90;0.47;;;6.10;99.90;;;;;;5072097;28;20562;-84
2022/01/23 01:14:22;;;;;;;3.53;0.40;;;5.50;99.90;;;;;;5071089;28;20036;-84
2022/01/23 01:35:57;;;;;;;1.15;0.50;;;5.50;99.90;;;;;;5070348;28;20095;-85
2022/01/23 01:38:24;;;;;;;1.33;0.55;;;6.20;99.90;;;;;;5034050;28;20052;-85
2022/01/23 01:40:50;;;;;;;0.82;0.60;;;5.00;99.90;;;;;;5070524;28;20072;-84
2022/01/23 01:43:16;;;;;;;1.58;0.70;;;6.20;99.90;;;;;;5037252;28;20114;-84
2022/01/23 01:45:42;;;;;;;3.03;0.70;;;6.20;99.90;;;;;;5070118;28;20396;-85
2022/01/23 01:48:09;;;;;;;1.52;0.50;;;5.80;99.90;;;;;;5050181;28;20045;-84
2022/01/23 01:50:35;;;;;;;0.93;0.60;;;4.90;99.90;;;;;;5051644;28;20071;-84
2022/01/23 01:53:01;;;;;;;1.17;0.50;;;5.60;99.90;;;;;;5063719;28;20070;-84
2022/01/23 01:55:35;;;;;;;1.77;0.68;;;5.40;99.90;;;;;;5070859;28;20079;-85
2022/01/23 01:58:05;;;;;;;3.50;0.60;;;5.60;99.90;;;;;;5052384;28;20131;-85
2022/01/23 02:10:46;;;;;;;3.17;0.80;;;5.40;99.90;;;;;;5068073;28;20040;-84
2022/01/23 02:13:15;;;;;;;2.88;0.90;;;6.10;99.90;;;;;;5053211;28;20080;-85
2022/01/23 02:51:40;;;;;;;3.10;0.77;;;4.70;99.90;;;;;;4993307;28;20475;-84
2022/01/23 02:56:48;;;;;;;1.63;0.60;;;5.50;99.90;;;;;;4993578;28;20129;-85
2022/01/23 03:02:01;;;;;;;3.40;0.90;;;6.40;99.90;;;;;;4977369;28;20051;-84
2022/01/23 03:04:27;;;;;;;3.60;0.70;;;5.70;99.90;;;;;;5000493;28;20086;-84
2022/01/23 03:07:09;;;;;;;3.25;0.77;;;5.50;99.90;;;;;;5016995;28;20105;-85
2022/01/23 03:15:06;;;;;;;1.40;0.75;;;5.50;99.90;;;;;;5073811;28;20562;-85
2022/01/23 03:26:09;;;;;;;2.65;0.85;;;5.50;99.90;;;;;;5063837;28;21372;-85
2022/01/23 03:28:39;;;;;;;2.25;1.10;;;5.50;99.90;;;;;;5052780;28;20452;-85
2022/01/23 03:33:32;;;;;;;3.33;1.10;;;6.30;99.90;;;;;;5070919;28;20403;-84
2022/01/23 03:35:58;;;;;;;2.10;0.80;;;5.70;99.90;;;;;;5071857;28;20053;-85
2022/01/23 03:38:24;;;;;;;1.83;0.80;;;6.30;99.90;;;;;;5073755;28;20040;-85
2022/01/23 03:40:50;;;;;;;4.45;0.98;;;5.50;99.90;;;;;;5047080;28;20052;-85
2022/01/23 03:43:22;;;;;;;2.10;0.70;;;5.80;99.90;;;;;;5052430;28;20041;-85
2022/01/23 03:46:19;;;;;;;1.08;0.63;;;6.40;99.90;;;;;;5071302;28;20393;-85
2022/01/23 03:51:12;;;;;;;2.95;1.00;;;6.00;99.90;;;;;;5055398;28;20558;-85
2022/01/23 03:53:38;;;;;;;0.95;0.70;;;6.00;99.90;;;;;;5055791;28;20465;-84
2022/01/23 03:56:05;;;;;;;1.42;0.70;;;5.70;99.90;;;;;;5052116;28;20047;-84
2022/01/23 03:58:31;;;;;;;1.02;0.60;;;5.50;99.90;;;;;;5061820;28;20068;-85
2022/01/23 04:00:57;;;;;;;1.50;0.70;;;5.50;99.90;;;;;;5064598;28;20059;-85
2022/01/23 04:03:23;;;;;;;1.80;0.70;;;5.50;99.90;;;;;;5042276;28;20033;-85
2022/01/23 04:05:50;;;;;;;4.18;0.90;;;6.30;99.90;;;;;;5037462;28;20051;-85
2022/01/23 04:08:17;;;;;;;2.42;1.05;;;6.30;99.90;;;;;;5054947;28;20076;-85
2022/01/23 04:10:43;;;;;;;2.97;0.70;;;5.70;99.90;;;;;;5070280;28;20557;-85
2022/01/23 04:13:19;;;;;;;1.60;0.50;;;5.50;99.90;;;;;;5054761;28;20120;-85
2022/01/23 04:15:50;;;;;;;;;;;5.70;99.90;;;;;;5051977;28;20045;-85
2022/01/23 04:45:31;;;;;;;1.60;0.63;;;5.60;99.90;;;;;;5052861;28;20053;-85
2022/01/23 05:04:24;;;;;;;2.15;0.82;;;5.00;99.90;;;;;;5054218;28;20143;-84
2022/01/23 05:09:49;;;;;;;1.75;0.70;;;5.50;99.90;;;;;;5029548;28;20494;-85
2022/01/23 05:12:14;;;;;;;2.75;0.80;;;5.50;99.90;;;;;;5027996;28;20059;-84
2022/01/23 05:14:43;;;;;;;2.22;0.77;;;6.40;99.90;;;;;;5029046;28;20037;-85
2022/01/23 05:17:13;;;;;;;1.48;0.60;;;5.50;99.90;;;;;;5012536;28;20045;-85
2022/01/23 05:19:40;;;;;;;1.35;0.63;;;6.00;99.90;;;;;;5029138;28;20112;-85
2022/01/23 05:24:41;;;;;;;0.60;0.50;;;6.20;99.90;;;;;;5012340;28;20068;-84
2022/01/23 05:27:10;;;;;;;0.90;0.50;;;4.20;99.90;;;;;;5028689;28;20108;-84
2022/01/23 05:29:37;;;;;;;3.97;0.95;;;5.50;99.90;;;;;;5028156;28;20511;-84
2022/01/23 05:32:04;;;;;;;1.85;0.80;;;4.30;99.90;;;;;;5029435;28;20425;-85
2022/01/23 05:34:30;;;;;;;3.20;0.80;;;5.50;99.90;;;;;;5012715;28;20080;-84
2022/01/23 05:36:56;;;;;;;1.17;0.70;;;5.70;99.90;;;;;;5012612;28;20092;-84
2022/01/23 05:39:24;;;;;;;1.23;0.60;;;5.10;99.90;;;;;;5029131;28;20053;-84
2022/01/23 05:41:57;;;;;;;0.95;0.60;;;5.80;99.90;;;;;;5008111;28;20041;-84
2022/01/23 05:44:23;;;;;;;1.75;0.63;;;5.70;99.90;;;;;;5033327;28;20045;-84
2022/01/23 05:46:49;;;;;;;1.58;0.60;;;5.60;99.90;;;;;;5070867;28;20040;-84
2022/01/23 05:49:14;;;;;;;2.13;0.77;;;5.70;99.90;;;;;;5071174;28;20044;-85
2022/01/23 05:51:40;;;;;;;0.88;0.57;;;5.90;99.90;;;;;;5070577;28;20043;-85
2022/01/23 05:54:06;;;;;;;1.40;0.70;;;6.30;99.90;;;;;;5053836;28;20055;-85
2022/01/23 05:56:31;;;;;;;1.42;0.70;;;5.90;99.90;;;;;;5053105;28;20044;-84
2022/01/23 05:58:57;;;;;;;1.25;0.57;;;6.20;99.90;;;;;;5043187;28;20045;-85
2022/01/23 06:01:23;;;;;;;1.75;0.70;;;5.00;99.90;;;;;;5078230;28;20122;-85
2022/01/23 06:03:49;;;;;;;0.65;0.63;;;6.20;99.90;;;;;;5074554;28;20043;-85
2022/01/23 06:06:14;;;;;;;2.35;0.73;;;6.20;99.90;;;;;;5054287;28;20045;-85
2022/01/23 06:08:40;;;;;;;1.83;0.75;;;6.10;99.90;;;;;;5072113;28;20047;-85
2022/01/23 06:11:06;;;;;;;1.33;0.60;;;5.20;99.90;;;;;;5074906;28;20044;-85
2022/01/23 06:13:32;;;;;;;2.00;0.70;;;6.20;99.90;;;;;;5054060;28;20049;-84
2022/01/23 06:15:58;;;;;;;0.80;0.50;;;4.60;99.90;;;;;;5074591;28;20032;-84
2022/01/23 06:18:25;;;;;;;1.60;0.60;;;6.10;99.90;;;;;;5067982;28;20092;-84
2022/01/23 06:20:50;;;;;;;1.35;0.70;;;5.90;99.90;;;;;;5056281;28;20052;-84
2022/01/23 06:23:17;;;;;;;1.33;0.63;;;6.20;99.90;;;;;;5074395;28;20036;-84
2022/01/23 06:25:45;;;;;;;1.60;0.60;;;6.00;99.90;;;;;;5056624;28;20057;-85
2022/01/23 06:28:14;;;;;;;1.00;0.60;;;6.10;99.90;;;;;;5054133;28;20480;-85
2022/01/23 06:30:40;;;;;;;0.90;0.55;;;5.60;99.90;;;;;;5054013;28;20049;-84
2022/01/23 06:33:07;;;;;;;2.88;0.82;;;6.30;99.90;;;;;;5056199;28;20075;-85
2022/01/23 06:35:35;;;;;;;1.52;0.68;;;6.10;99.90;;;;;;5053571;28;20063;-84
2022/01/23 06:38:01;;;;;;;1.33;0.60;;;5.70;99.90;;;;;;5056713;28;20059;-84
2022/01/23 06:40:27;;;;;;;0.88;0.50;;;5.90;99.90;;;;;;5061181;28;20040;-84
2022/01/23 06:42:53;;;;;;;1.25;0.50;;;5.60;99.90;;;;;;5056357;28;20040;-86
2022/01/23 06:45:18;;;;;;;1.30;0.65;;;6.20;99.90;;;;;;5074637;28;20041;-84
2022/01/23 06:47:44;;;;;;;2.40;0.70;;;5.40;99.90;;;;;;5039764;28;20485;-85
2022/01/23 06:50:10;;;;;;;1.27;0.70;;;6.30;99.90;;;;;;5068108;28;20110;-84
2022/01/23 06:52:35;;;;;;;1.77;0.60;;;5.60;99.90;;;;;;5074179;28;20485;-84
2022/01/23 06:55:01;;;;;;;0.90;0.60;;;6.20;99.90;;;;;;5065442;28;20049;-84
2022/01/23 06:57:27;;;;;;;1.30;0.50;;;5.40;99.90;;;;;;5066552;28;20045;-85
2022/01/23 06:59:52;;;;;;;0.98;0.50;;;5.50;99.90;;;;;;5048791;28;20497;-84
2022/01/23 07:02:18;;;;;;;2.35;1.65;;;6.30;99.90;;;;;;5044348;28;20036;-84
2022/01/23 07:04:44;;;;;;;1.42;0.50;;;5.60;99.90;;;;;;5057699;28;20440;-85
2022/01/23 07:07:09;;;;;;;1.05;0.68;;;5.40;99.90;;;;;;5050064;28;20052;-85
2022/01/23 07:09:35;;;;;;;2.65;1.17;;;5.40;99.90;;;;;;5026361;28;20485;-85
2022/01/23 07:12:01;;;;;;;1.88;0.88;;;5.10;99.90;;;;;;5046637;28;20056;-85
2022/01/23 07:14:27;;;;;;;2.83;0.75;;;5.40;99.90;;;;;;5023415;28;20033;-84
2022/01/23 07:16:52;;;;;;;2.80;0.73;;;5.40;99.90;;;;;;5052512;28;20043;-85
2022/01/23 07:19:18;;;;;;;1.40;0.60;;;6.30;99.90;;;;;;5072022;28;20040;-84
2022/01/23 07:21:44;;;;;;;1.35;0.60;;;5.80;99.90;;;;;;5065183;28;20044;-84
2022/01/23 07:24:10;;;;;;;2.70;1.05;;;6.00;99.90;;;;;;5050383;28;20048;-85
2022/01/23 07:26:45;;;;;;;1.52;0.68;;;6.00;99.90;;;;;;5067535;28;20052;-88
2022/01/23 07:29:11;;;;;;;1.00;0.60;;;6.20;99.90;;;;;;5053635;28;20044;-86
2022/01/23 07:34:05;;;;;;;1.10;0.65;;;5.70;99.90;;;;;;5051906;28;20063;-83
2022/01/23 07:36:36;;;;;;;2.53;0.90;;;5.90;99.90;;;;;;5066598;28;20045;-82
2022/01/23 07:39:04;;;;;;;2.40;0.75;;;5.30;99.90;;;;;;5038730;28;20440;-84
2022/01/23 07:41:30;;;;;;;1.58;0.70;;;5.20;99.90;;;;;;5068319;28;20045;-83
2022/01/23 07:43:58;;;;;;;1.08;0.68;;;5.70;99.90;;;;;;5073314;28;20048;-82
2022/01/23 07:46:23;;;;;;;0.65;0.52;;;5.30;99.90;;;;;;5073346;28;20040;-82
2022/01/23 07:48:49;;;;;;;1.02;0.57;;;5.80;99.90;;;;;;5073255;28;20090;-82
2022/01/23 07:51:15;;;;;;;0.88;0.50;;;5.90;99.90;;;;;;5072490;28;20048;-82
2022/01/23 07:53:41;;;;;;;1.45;0.60;;;5.20;99.90;;;;;;5044947;28;20048;-84
2022/01/23 07:56:07;;;;;;;1.00;0.60;;;5.90;99.90;;;;;;5047380;28;20041;-82
2022/01/23 07:58:32;;;;;;;1.30;0.70;;;5.30;99.90;;;;;;5064779;28;20040;-82
2022/01/23 08:00:58;;;;;;;1.20;0.57;;;5.20;99.90;;;;;;5071042;28;20066;-82
2022/01/23 08:03:24;;;;;;;2.30;0.80;;;5.90;99.90;;;;;;5072441;28;20048;-81
2022/01/23 08:05:49;;;;;;;1.80;0.88;;;5.50;99.90;;;;;;5073036;28;20036;-82
2022/01/23 08:08:15;;;;;;;1.42;0.80;;;5.70;99.90;;;;;;5064835;28;20092;-82
2022/01/23 08:10:41;;;;;;;1.55;0.60;;;5.90;99.90;;;;;;5065769;28;20489;-87
2022/01/23 08:13:07;;;;;;;1.23;0.75;;;5.20;99.90;;;;;;5048206;28;20087;-84
2022/01/23 08:15:33;;;;;;;2.00;0.85;;;5.20;99.90;;;;;;5051551;28;20480;-83
2022/01/23 08:18:04;;;;;;;2.15;1.10;;;5.70;99.90;;;;;;5525128;22;20055;-87
2022/01/23 08:20:33;;;;;;;2.92;1.30;;;5.10;99.90;;;;;;5073120;28;20091;-83
2022/01/23 08:23:01;;;;;;;3.08;1.20;;;5.50;99.90;;;;;;5093985;28;20108;-81
2022/01/23 08:25:27;;;;;;;2.22;1.00;;;5.90;99.90;;;;;;5073293;28;20044;-82
2022/01/23 08:27:53;;;;;;;3.70;1.10;;;5.10;99.90;;;;;;5092847;28;20044;-82
2022/01/23 08:30:18;;;;;;;4.20;1.20;;;6.00;99.90;;;;;;5083086;28;20432;-84
2022/01/23 08:32:44;;;;;;;2.42;0.88;;;5.20;99.90;;;;;;5072566;28;20447;-82
2022/01/23 08:35:10;;;;;;;3.58;1.45;;;5.40;99.90;;;;;;5074584;28;20055;-82
2022/01/23 08:37:36;;;;;;;2.75;1.30;;;5.10;99.90;;;;;;5071673;28;20403;-82
2022/01/23 08:40:03;;;;;;;2.95;1.40;;;5.80;99.90;;;;;;5074447;28;20189;-81
2022/01/23 08:42:29;;;;;;;2.30;1.25;;;5.10;99.90;;;;;;5082578;28;20127;-82
2022/01/23 08:44:55;;;;;;;2.90;1.35;;;5.10;99.90;;;;;;5073443;28;20178;-82
2022/01/23 08:47:22;;;;;;;2.70;1.20;;;5.20;99.90;;;;;;5084657;28;20049;-82
2022/01/23 08:49:49;;;;;;;2.90;1.20;;;5.90;99.90;;;;;;5075647;28;20070;-82
2022/01/23 08:52:19;;;;;;;2.72;1.20;;;5.40;99.90;;;;;;5083829;28;20036;-82
2022/01/23 08:54:49;;;;;;;1.92;1.00;;;4.20;99.90;;;;;;5084520;28;20042;-82
2022/01/23 08:57:16;;;;;;;1.70;0.80;;;5.00;99.90;;;;;;5085086;28;20044;-82
2022/01/23 09:06:46;;;;;;;2.72;1.30;;;5.30;99.90;;;;;;5470857;22;20519;-84
2022/01/23 09:09:19;;;;;;;2.38;1.05;;;5.80;99.90;;;;;;5038480;28;20053;-84
2022/01/23 09:14:22;;;;;;;3.10;1.70;;;5.50;99.90;;;;;;5032174;28;20045;-84
2022/01/23 09:16:49;;;;;;;3.17;1.58;;;6.30;99.90;;;;;;5032406;28;20052;-86
2022/01/23 09:19:19;;;;;;;1.98;1.02;;;5.80;99.90;;;;;;5031903;28;20038;-86
2022/01/23 09:21:46;;;;;;;1.67;0.95;;;5.90;99.90;;;;;;5031170;28;20038;-83
2022/01/23 09:24:12;;;;;;;2.20;1.17;;;5.70;99.90;;;;;;5031909;28;20045;-84
2022/01/23 09:26:38;;;;;;;2.63;1.27;;;6.10;99.90;;;;;;5031078;28;20560;-84
2022/01/23 09:29:13;;;;;;;2.55;1.40;;;5.70;99.90;;;;;;5014273;28;20124;-85
2022/01/23 09:31:48;;;;;;;1.63;0.82;;;5.80;99.90;;;;;;5014089;28;20045;-86
2022/01/23 09:34:19;;;;;;;2.00;0.80;;;5.80;99.90;;;;;;5031423;28;20409;-83
2022/01/23 09:36:45;;;;;;;1.52;0.70;;;6.20;99.90;;;;;;5030781;28;20050;-84
2022/01/23 09:39:15;;;;;;;1.08;0.70;;;5.90;99.90;;;;;;5031468;28;20045;-89
2022/01/23 09:41:46;;;;;;;2.10;0.85;;;6.20;99.90;;;;;;5031329;28;20042;-85
2022/01/23 09:44:15;;;;;;;2.22;1.10;;;6.40;99.90;;;;;;5031783;28;20416;-89
2022/01/23 09:46:43;;;;;;;1.65;0.93;;;6.00;99.90;;;;;;5013070;28;20068;-82
2022/01/23 09:49:12;;;;;;;1.63;1.08;;;6.10;99.90;;;;;;5031288;28;20038;-83
2022/01/23 09:51:41;;;;;;;2.15;1.02;;;6.10;99.90;;;;;;5013786;28;20052;-85
2022/01/23 09:54:09;;;;;;;1.58;0.88;;;7.00;99.90;;;;;;5031431;28;20041;-82
2022/01/23 09:56:35;;;;;;;1.52;0.80;;;6.40;99.90;;;;;;5024619;28;20120;-82
2022/01/23 09:59:01;;;;;;;2.40;1.10;;;6.70;99.90;;;;;;5013128;28;20129;-87
2022/01/23 10:01:27;;;;;;;1.48;0.80;;;7.20;99.90;;;;;;5013384;28;20042;-82
2022/01/23 10:03:53;;;;;;;1.55;0.90;;;6.30;99.90;;;;;;5031466;28;20038;-84
2022/01/23 10:06:19;;;;;;;1.38;0.70;;;6.40;99.90;;;;;;5031011;28;20064;-84
2022/01/23 10:08:46;;;;;;;1.02;0.60;;;7.30;99.90;;;;;;5029976;28;20037;-87
2022/01/23 10:11:13;;;;;;;1.50;0.80;;;7.10;99.90;;;;;;5031555;28;20042;-82
2022/01/23 10:13:41;;;;;;;1.00;0.60;;;6.60;99.90;;;;;;5031011;28;20600;-83
2022/01/23 10:16:07;;;;;;;2.63;0.80;;;6.70;99.90;;;;;;5012654;28;20519;-85
2022/01/23 10:18:33;;;;;;;1.33;0.70;;;7.10;99.90;;;;;;5026842;28;20094;-84
2022/01/23 10:20:59;;;;;;;1.05;0.63;;;6.70;99.90;;;;;;4997474;28;20049;-84
2022/01/23 10:23:26;;;;;;;1.73;0.73;;;6.70;99.90;;;;;;5030828;28;20045;-84
2022/01/23 10:25:53;;;;;;;3.22;0.93;;;6.70;99.90;;;;;;5013460;28;20092;-84
2022/01/23 10:28:21;;;;;;;1.98;0.93;;;7.50;99.90;;;;;;5013886;28;20363;-84
2022/01/23 10:30:55;;;;;;;4.22;1.30;;;6.60;99.90;;;;;;5031099;28;20143;-85
2022/01/23 10:33:26;;;;;;;2.97;1.00;;;7.30;99.90;;;;;;5031516;28;20440;-83
2022/01/23 10:36:07;;;;;;;1.60;0.80;;;6.80;99.90;;;;;;5029682;28;20448;-87
2022/01/23 10:38:54;;;;;;;2.22;1.50;;;6.80;99.90;;;;;;5030071;28;20077;-85
2022/01/23 10:49:57;;;;;;;1.83;0.90;;;7.70;99.90;;;;;;4974091;28;20085;-84
2022/01/23 10:52:45;;;;;;;1.75;0.90;;;7.60;99.90;;;;;;4958157;28;20082;-83
2022/01/23 10:55:11;;;;;;;1.65;0.85;;;7.00;99.90;;;;;;4974067;28;20063;-85
2022/01/23 10:57:38;;;;;;;1.48;0.75;;;7.00;99.90;;;;;;4973563;28;20108;-85
2022/01/23 11:00:07;;;;;;;2.55;0.90;;;7.80;99.90;;;;;;4973540;28;20061;-85
2022/01/23 11:02:39;;;;;;;1.50;0.73;;;7.00;99.90;;;;;;4973511;28;20054;-85
2022/01/23 11:05:08;;;;;;;1.00;0.60;;;7.80;99.90;;;;;;4957280;28;20051;-86
2022/01/23 11:07:38;;;;;;;1.10;0.57;;;7.00;99.90;;;;;;4957511;28;20051;-86
2022/01/23 11:10:10;;;;;;;1.40;0.70;;;7.70;99.90;;;;;;4955786;28;20110;-85
2022/01/23 11:17:59;;;;;;;1.23;0.63;;;7.10;99.90;;;;;;4970000;28;20202;-82
2022/01/23 11:20:43;;;;;;;0.70;0.50;;;7.20;99.90;;;;;;4937187;28;20506;-83
2022/01/23 11:23:22;;;;;;;1.13;0.52;;;7.20;99.90;;;;;;4971368;28;20116;-86
2022/01/23 11:25:57;;;;;;;1.27;0.50;;;7.20;99.90;;;;;;4980261;28;20047;-84
2022/01/23 11:28:43;;;;;;;2.28;0.52;;;7.90;99.90;;;;;;5017390;28;20050;-85
2022/01/23 11:31:13;;;;;;;0.65;0.40;;;7.30;99.90;;;;;;4993464;28;20136;-86
2022/01/23 11:33:40;;;;;;;1.02;0.38;;;7.30;99.90;;;;;;5033224;28;20037;-84
2022/01/23 11:36:07;;;;;;;0.52;0.30;;;7.30;99.90;;;;;;5033260;28;20053;-82
2022/01/23 11:38:33;;;;;;;0.55;0.30;;;7.40;99.90;;;;;;5033788;28;20064;-84
2022/01/23 11:54:39;;;;;;;1.70;0.50;;;7.80;99.90;;;;;;5032042;28;20049;-83
2022/01/23 11:57:35;;;;;;;1.50;0.40;;;7.50;99.90;;;;;;5031754;28;20179;-85
2022/01/23 12:00:06;;;;;;;1.43;0.50;;;7.50;99.90;;;;;;5014995;28;20046;-88
2022/01/23 12:02:40;;;;;;;1.00;0.47;;;7.50;99.90;;;;;;5015454;28;20045;-84
2022/01/23 12:05:17;;;;;;;0.82;0.50;;;7.90;99.90;;;;;;5032507;28;20446;-85
2022/01/23 12:07:45;;;;;;;1.73;0.60;;;7.50;99.90;;;;;;5014863;28;20489;-85
2022/01/23 12:10:20;;;;;;;1.02;0.50;;;7.30;99.90;;;;;;5008020;28;20037;-86
2022/01/23 12:12:49;;;;;;;0.97;0.50;;;7.50;99.90;;;;;;5032267;28;20076;-85
2022/01/23 12:18:22;;;;;;;0.80;0.40;;;7.60;99.90;;;;;;5031770;28;20060;-83
2022/01/23 12:20:52;;;;;;;1.20;0.50;;;7.60;99.90;;;;;;5015450;28;20041;-88
2022/01/23 12:23:19;;;;;;;1.23;0.47;;;7.80;99.90;;;;;;5025661;28;20041;-85
2022/01/23 12:25:55;;;;;;;1.23;0.60;;;7.70;99.90;;;;;;5032703;28;20052;-84
2022/01/23 12:28:28;;;;;;;1.65;0.50;;;7.70;99.90;;;;;;5031745;28;20068;-85
2022/01/23 12:31:00;;;;;;;1.48;0.73;;;8.00;99.90;;;;;;5031527;28;20037;-86
2022/01/23 12:33:29;;;;;;;1.58;0.60;;;7.70;99.90;;;;;;5032889;28;20048;-83
2022/01/23 12:36:05;;;;;;;4.35;0.80;;;8.20;99.90;;;;;;5031556;28;20049;-85
2022/01/23 12:38:40;;;;;;;1.75;0.80;;;7.70;99.90;;;;;;5032420;28;20120;-82
2022/01/23 12:41:19;;;;;;;1.42;0.88;;;8.20;99.90;;;;;;5031658;28;20033;-84
2022/01/23 12:43:44;;;;;;;1.45;0.90;;;7.00;99.90;;;;;;5032448;28;20124;-84
2022/01/23 12:46:22;;;;;;;1.67;0.90;;;7.70;99.90;;;;;;5031071;28;20132;-87
2022/01/23 12:48:49;;;;;;;1.90;0.90;;;7.80;99.90;;;;;;5009607;28;20128;-85
2022/01/23 12:51:17;;;;;;;1.63;0.88;;;7.80;99.90;;;;;;5014987;28;20566;-86
2022/01/23 12:53:43;;;;;;;2.45;1.00;;;8.10;99.90;;;;;;5032130;28;20068;-86
2022/01/23 12:56:10;;;;;;;2.17;0.85;;;8.20;99.90;;;;;;5031751;28;20050;-85
2022/01/23 12:58:37;;;;;;;1.70;0.90;;;7.70;99.90;;;;;;5032168;28;20921;-85
2022/01/23 13:01:15;;;;;;;1.58;0.60;;;8.40;99.90;;;;;;5031630;28;20045;-82
2022/01/23 13:03:49;;;;;;;1.33;0.65;;;8.40;99.90;;;;;;5013980;28;20045;-85
2022/01/23 13:06:15;;;;;;;4.05;0.90;;;7.80;99.90;;;;;;5013068;28;20044;-86
2022/01/23 13:08:49;;;;;;;1.35;0.88;;;7.70;99.90;;;;;;5014122;28;20050;-86
2022/01/23 13:11:50;;;;;;;1.58;0.60;;;7.80;99.90;;;;;;5031221;28;20056;-86
2022/01/23 13:14:07;;;;;;;3.00;0.80;;;8.20;99.90;;;;;;5013904;28;20119;-84
2022/01/23 13:17:11;;;;;;;1.58;1.08;;;7.90;99.90;;;;;;5015035;28;20049;-87
2022/01/23 13:30:54;;;;;;;1.48;0.70;;;8.00;99.90;;;;;;5032789;28;20045;-86
2022/01/23 13:33:21;;;;;;;1.85;0.77;;;7.60;99.90;;;;;;5032516;28;20401;-85
2022/01/23 13:35:52;;;;;;;1.52;0.90;;;7.40;99.90;;;;;;4998235;28;20088;-86
2022/01/23 13:38:20;;;;;;;1.10;0.70;;;7.70;99.90;;;;;;5014611;28;20100;-86
2022/01/23 13:40:56;;;;;;;0.75;0.60;;;7.60;99.90;;;;;;5014939;28;20050;-86
2022/01/23 14:00:02;;;;;;;1.42;0.70;;;8.30;99.90;;;;;;5014563;28;19971;-85
2022/01/23 14:02:38;;;;;;;1.33;0.70;;;8.00;99.90;;;;;;4998101;28;20497;-83
2022/01/23 14:05:13;;;;;;;3.15;1.30;;;7.70;99.90;;;;;;5031802;28;20125;-84
2022/01/23 14:07:45;;;;;;;2.40;1.00;;;7.60;99.90;;;;;;5014540;28;20056;-85
2022/01/23 14:10:32;;;;;;;1.20;0.70;;;7.50;99.90;;;;;;5014860;28;20041;-85
2022/01/23 14:13:19;;;;;;;2.33;0.90;;;7.50;99.90;;;;;;5014738;28;20049;-85
2022/01/23 14:15:53;;;;;;;1.67;0.80;;;8.10;99.90;;;;;;5031925;28;20045;-85
2022/01/23 14:18:24;;;;;;;2.85;1.52;;;7.50;99.90;;;;;;5032042;28;20056;-85
2022/01/23 14:21:04;;;;;;;2.38;1.00;;;7.60;99.90;;;;;;5017157;28;20041;-86
2022/01/23 14:23:31;;;;;;;2.13;0.90;;;7.40;99.90;;;;;;5018534;28;20076;-85
2022/01/23 14:26:03;;;;;;;2.00;1.05;;;8.20;99.90;;;;;;5018096;28;20050;-83
2022/01/23 14:28:38;;;;;;;1.10;0.80;;;7.40;99.90;;;;;;5035390;28;20087;-83
2022/01/23 14:31:15;;;;;;;1.48;0.80;;;6.80;99.90;;;;;;5017846;28;20053;-84
2022/01/23 14:33:41;;;;;;;1.50;0.80;;;7.40;99.90;;;;;;5018244;28;20081;-87
2022/01/23 14:36:16;;;;;;;1.90;0.85;;;7.70;99.90;;;;;;5017875;28;20056;-86
2022/01/23 14:38:58;;;;;;;1.38;0.77;;;8.00;99.90;;;;;;5035700;28;20041;-87
2022/01/23 14:41:26;;;;;;;1.63;0.90;;;7.40;99.90;;;;;;5017932;28;20056;-86
2022/01/23 14:43:52;;;;;;;1.92;1.02;;;8.00;99.90;;;;;;5017507;28;20041;-86
2022/01/23 14:46:18;;;;;;;4.80;1.10;;;7.90;99.90;;;;;;5001414;28;20056;-86
2022/01/23 14:48:48;;;;;;;2.03;0.90;;;8.10;99.90;;;;;;5017847;28;20049;-86
2022/01/23 14:51:21;;;;;;;1.80;0.98;;;8.20;99.90;;;;;;5018002;28;20056;-86
2022/01/23 14:53:48;;;;;;;1.40;0.90;;;7.30;99.90;;;;;;5017452;28;20052;-87
2022/01/23 14:56:14;;;;;;;1.95;1.02;;;7.30;99.90;;;;;;5035033;28;20501;-86
2022/01/23 14:58:42;;;;;;;3.88;1.27;;;7.50;99.90;;;;;;5016941;28;20537;-86
2022/01/23 15:01:11;;;;;;;2.28;0.90;;;7.30;99.90;;;;;;5013289;28;20398;-86
2022/01/23 15:03:38;;;;;;;1.60;0.90;;;7.10;99.90;;;;;;5034390;28;20045;-88
2022/01/23 15:06:05;;;;;;;1.98;0.82;;;7.20;99.90;;;;;;5015775;28;20052;-86
2022/01/23 15:08:32;;;;;;;1.88;0.82;;;7.40;99.90;;;;;;5033968;28;20049;-83
2022/01/23 15:11:00;;;;;;;2.15;0.90;;;6.30;99.90;;;;;;5016433;28;20096;-85
2022/01/23 15:13:30;;;;;;;2.70;0.90;;;7.30;99.90;;;;;;5015759;28;20077;-84
2022/01/23 15:15:57;;;;;;;1.92;1.10;;;7.40;99.90;;;;;;5017017;28;20501;-83
2022/01/23 15:18:23;;;;;;;1.70;1.00;;;7.20;99.90;;;;;;5015593;28;20067;-82
2022/01/23 15:20:49;;;;;;;1.92;0.85;;;7.50;99.90;;;;;;5016412;28;20120;-83
2022/01/23 15:23:16;;;;;;;2.63;1.00;;;7.10;99.90;;;;;;5033491;28;20401;-83
2022/01/23 15:25:45;;;;;;;1.80;0.90;;;6.70;99.90;;;;;;5026500;28;20037;-83
2022/01/23 15:28:11;;;;;;;2.28;1.38;;;7.40;99.90;;;;;;5016131;28;20053;-85
2022/01/23 15:30:37;;;;;;;3.80;1.13;;;8.00;99.90;;;;;;4999487;28;20183;-84
2022/01/23 15:33:06;;;;;;;2.22;1.20;;;7.70;99.90;;;;;;5033372;28;20417;-83
2022/01/23 15:35:34;;;;;;;2.72;1.10;;;7.80;99.90;;;;;;5015193;28;20084;-86
2022/01/23 15:38:00;;;;;;;3.40;1.48;;;7.70;99.90;;;;;;5033075;28;20505;-85
2022/01/23 15:40:26;;;;;;;3.33;2.05;;;7.50;99.90;;;;;;5033261;28;20053;-84
2022/01/23 15:42:54;;;;;;;1.98;1.05;;;6.60;99.90;;;;;;5015926;28;20045;-84
2022/01/23 15:45:22;;;;;;;2.00;1.10;;;7.00;99.90;;;;;;5016486;28;20120;-83
2022/01/23 15:47:48;;;;;;;3.25;1.30;;;7.60;99.90;;;;;;5015727;28;20053;-83
2022/01/23 15:50:15;;;;;;;1.85;1.17;;;7.80;99.90;;;;;;5033138;28;20401;-83
2022/01/23 15:52:41;;;;;;;3.22;1.13;;;7.60;99.90;;;;;;5033272;28;20092;-84
2022/01/23 15:55:10;;;;;;;4.47;1.48;;;7.30;99.90;;;;;;5015330;28;20045;-85
2022/01/23 15:57:37;;;;;;;2.65;0.90;;;6.90;99.90;;;;;;5033490;28;20041;-86
2022/01/23 16:00:06;;;;;;;2.70;1.20;;;7.30;99.90;;;;;;5028333;28;20037;-84
2022/01/23 16:02:32;;;;;;;1.67;1.00;;;6.90;99.90;;;;;;5015906;28;20033;-86
2022/01/23 16:04:59;;;;;;;2.65;1.33;;;7.10;99.90;;;;;;5032197;28;20052;-83
2022/01/23 16:07:25;;;;;;;3.70;1.15;;;7.20;99.90;;;;;;5031185;28;20053;-82
2022/01/23 16:09:51;;;;;;;2.15;1.25;;;7.50;99.90;;;;;;5032644;28;20041;-84
2022/01/23 16:12:18;;;;;;;2.17;1.15;;;7.40;99.90;;;;;;5032622;28;20379;-83
2022/01/23 16:14:44;;;;;;;2.90;1.15;;;7.30;99.90;;;;;;5032769;28;20508;-82
2022/01/23 16:17:10;;;;;;;3.92;1.02;;;6.90;99.90;;;;;;5032092;28;20045;-84
2022/01/23 16:19:36;;;;;;;2.03;1.10;;;7.30;99.90;;;;;;5014759;28;20127;-83
2022/01/23 16:22:02;;;;;;;3.15;1.08;;;6.80;99.90;;;;;;5032102;28;20121;-85
2022/01/23 16:24:28;;;;;;;2.55;1.02;;;6.60;99.90;;;;;;5013024;28;20453;-83
2022/01/23 16:26:55;;;;;;;2.47;1.23;;;7.30;99.90;;;;;;5026359;28;20498;-82
2022/01/23 16:29:25;;;;;;;2.13;1.00;;;7.50;99.90;;;;;;5032203;28;20099;-85
2022/01/23 16:31:53;;;;;;;1.67;1.00;;;6.90;99.90;;;;;;5008504;28;20049;-84
2022/01/23 16:34:19;;;;;;;1.25;0.77;;;6.90;99.90;;;;;;5014861;28;20052;-84
2022/01/23 16:36:46;;;;;;;3.00;1.00;;;7.40;99.90;;;;;;5031636;28;20046;-85
2022/01/23 16:39:15;;;;;;;1.70;1.00;;;7.60;99.90;;;;;;5014912;28;20079;-84
2022/01/23 16:41:41;;;;;;;1.00;0.75;;;7.00;99.90;;;;;;5031761;28;20440;-85
2022/01/23 16:44:07;;;;;;;2.20;1.02;;;7.30;99.90;;;;;;5014325;28;20120;-84
2022/01/23 16:46:35;;;;;;;1.67;0.98;;;6.60;99.90;;;;;;5013403;28;20528;-84
2022/01/23 16:49:01;;;;;;;2.38;1.20;;;6.60;99.90;;;;;;5027455;28;20091;-84
2022/01/23 16:51:26;;;;;;;2.08;0.80;;;6.90;99.90;;;;;;5024052;28;20037;-83
2022/01/23 16:53:52;;;;;;;1.77;0.80;;;7.10;99.90;;;;;;5032374;28;20069;-84